createdAt,value
2018-12-18T00:02:09.448Z,18.70
2018-12-18T00:04:36.979Z,17.03
2018-12-18T00:07:04.600Z,22.43
2018-12-18T00:09:32.145Z,17.47
2018-12-18T00:11:59.765Z,16.60
2018-12-18T00:14:27.313Z,21.30
2018-12-18T00:16:56.492Z,18.20
2018-12-18T00:19:24.022Z,20.37
2018-12-18T00:21:51.810Z,20.10
2018-12-18T00:24:19.722Z,16.93
2018-12-18T00:26:47.538Z,18.43
2018-12-18T00:29:15.558Z,14.63
2018-12-18T00:31:43.562Z,19.80
2018-12-18T00:34:11.098Z,20.90
2018-12-18T00:36:39.420Z,16.30
2018-12-18T00:39:08.926Z,17.80
2018-12-18T00:41:36.464Z,17.70
2018-12-18T00:44:04.477Z,17.47
2018-12-18T00:46:32.280Z,18.60
2018-12-18T00:48:59.888Z,21.53
2018-12-18T00:51:27.426Z,19.70
2018-12-18T00:53:55.352Z,19.43
2018-12-18T00:56:22.910Z,15.43
2018-12-18T00:58:50.537Z,19.53
2018-12-18T01:01:18.081Z,19.53
2018-12-18T01:03:52.550Z,16.90
2018-12-18T01:06:16.005Z,14.87
2018-12-18T01:08:43.943Z,24.67
2018-12-18T01:11:12.215Z,19.87
2018-12-18T01:13:40.003Z,18.00
2018-12-18T01:16:07.824Z,16.70
2018-12-18T01:18:35.576Z,17.37
2018-12-18T01:21:03.130Z,17.53
2018-12-18T01:23:31.328Z,20.53
2018-12-18T01:25:58.846Z,21.63
2018-12-18T01:28:26.452Z,20.60
2018-12-18T01:30:54.279Z,21.80
2018-12-18T01:33:21.999Z,24.43
2018-12-18T01:35:49.703Z,18.97
2018-12-18T01:38:17.744Z,17.33
2018-12-18T01:40:45.375Z,18.93
2018-12-18T01:43:12.975Z,21.57
2018-12-18T01:45:40.518Z,19.40
2018-12-18T01:48:08.158Z,17.40
2018-12-18T01:50:36.338Z,17.30
2018-12-18T01:53:04.101Z,16.97
2018-12-18T01:55:31.674Z,16.37
2018-12-18T01:57:59.693Z,17.97
2018-12-18T02:00:27.252Z,18.40
2018-12-18T02:02:54.852Z,22.50
2018-12-18T02:05:22.390Z,17.70
2018-12-18T02:07:49.994Z,20.70
2018-12-18T02:10:17.546Z,23.53
2018-12-18T02:12:45.163Z,20.10
2018-12-18T02:15:12.696Z,18.30
2018-12-18T02:17:40.561Z,19.50
2018-12-18T02:20:08.578Z,17.77
2018-12-18T02:22:36.208Z,17.17
2018-12-18T02:25:05.215Z,16.37
2018-12-18T02:27:34.240Z,16.07
2018-12-18T02:30:02.501Z,23.47
2018-12-18T02:32:30.870Z,20.43
2018-12-18T02:34:59.168Z,19.77
2018-12-18T02:37:26.774Z,16.07
2018-12-18T02:39:54.611Z,20.10
2018-12-18T02:42:22.147Z,18.63
2018-12-18T02:44:49.909Z,18.90
2018-12-18T02:47:17.466Z,17.33
2018-12-18T02:49:45.276Z,17.67
2018-12-18T02:52:12.815Z,17.83
2018-12-18T02:54:40.774Z,18.53
2018-12-18T02:57:08.378Z,16.13
2018-12-18T02:59:36.058Z,19.27
2018-12-18T03:02:03.611Z,16.13
2018-12-18T03:04:31.236Z,12.70
2018-12-18T03:06:58.766Z,18.10
2018-12-18T03:09:27.184Z,15.17
2018-12-18T03:11:54.734Z,14.70
2018-12-18T03:14:22.681Z,14.73
2018-12-18T03:16:50.219Z,16.93
2018-12-18T03:19:17.835Z,14.93
2018-12-18T03:21:45.414Z,16.43
2018-12-18T03:24:13.022Z,18.57
2018-12-18T03:26:40.587Z,18.07
2018-12-18T03:29:08.947Z,15.70
2018-12-18T03:31:38.474Z,14.30
2018-12-18T03:34:06.335Z,17.80
2018-12-18T03:36:33.935Z,19.13
2018-12-18T03:39:01.716Z,14.30
2018-12-18T03:41:29.630Z,13.30
2018-12-18T03:43:57.228Z,15.97
2018-12-18T03:46:24.809Z,13.57
2018-12-18T03:48:52.614Z,15.83
2018-12-18T03:51:20.150Z,17.70
2018-12-18T03:53:47.762Z,20.90
2018-12-18T03:56:15.312Z,15.37
2018-12-18T03:58:43.029Z,19.43
2018-12-18T04:01:10.573Z,9.63
2018-12-18T04:03:38.742Z,16.03
2018-12-18T04:06:06.315Z,17.57
2018-12-18T04:08:33.917Z,19.10
2018-12-18T04:11:01.532Z,19.17
2018-12-18T04:13:29.144Z,17.13
2018-12-18T04:15:56.677Z,18.90
2018-12-18T04:18:24.301Z,15.90
2018-12-18T04:20:51.854Z,20.83
2018-12-18T04:23:19.824Z,21.00
2018-12-18T04:25:47.376Z,18.40
2018-12-18T04:28:14.930Z,18.77
2018-12-18T04:30:43.075Z,18.73
2018-12-18T04:33:10.732Z,22.30
2018-12-18T04:35:38.313Z,20.27
2018-12-18T04:38:06.242Z,16.27
2018-12-18T04:40:34.107Z,23.17
2018-12-18T04:43:01.638Z,17.10
2018-12-18T04:45:29.243Z,19.23
2018-12-18T04:47:56.783Z,20.97
2018-12-18T04:50:24.423Z,17.60
2018-12-18T04:52:51.973Z,18.43
2018-12-18T04:55:19.583Z,17.60
2018-12-18T04:57:47.113Z,19.00
2018-12-18T05:00:15.184Z,16.80
2018-12-18T05:02:42.734Z,21.13
2018-12-18T05:05:10.535Z,17.97
2018-12-18T05:07:38.058Z,16.60
2018-12-18T05:10:06.023Z,18.13
2018-12-18T05:12:33.546Z,19.33
2018-12-18T05:15:02.411Z,23.30
2018-12-18T05:17:29.960Z,17.33
2018-12-18T05:19:57.713Z,15.40
2018-12-18T05:22:25.279Z,14.17
2018-12-18T05:24:53.049Z,15.33
2018-12-18T05:27:21.125Z,13.47
2018-12-18T05:29:48.796Z,14.10
2018-12-18T05:32:16.376Z,19.70
2018-12-18T05:34:44.011Z,17.97
2018-12-18T05:37:11.540Z,21.13
2018-12-18T05:39:39.804Z,16.90
2018-12-18T05:42:07.335Z,17.03
2018-12-18T05:44:34.939Z,17.90
2018-12-18T05:47:02.471Z,12.77
2018-12-18T05:49:30.864Z,15.37
2018-12-18T05:51:58.650Z,19.00
2018-12-18T05:54:26.384Z,26.80
2018-12-18T05:56:53.913Z,15.07
2018-12-18T05:59:21.667Z,19.37
2018-12-18T06:01:49.205Z,24.40
2018-12-18T06:04:16.836Z,16.00
2018-12-18T06:06:44.372Z,17.13
2018-12-18T06:09:11.981Z,18.70
2018-12-18T06:11:39.517Z,22.03
2018-12-18T06:14:07.114Z,16.03
2018-12-18T06:16:34.660Z,20.07
2018-12-18T06:19:02.419Z,19.80
2018-12-18T06:21:29.958Z,18.40
2018-12-18T06:23:57.714Z,20.23
2018-12-18T06:26:25.260Z,16.00
2018-12-18T06:28:53.524Z,22.47
2018-12-18T06:31:21.358Z,14.93
2018-12-18T06:33:48.952Z,18.80
2018-12-18T06:36:16.494Z,19.50
2018-12-18T06:38:44.677Z,14.37
2018-12-18T06:41:12.984Z,17.80
2018-12-18T06:43:40.518Z,15.97
2018-12-18T06:46:08.124Z,16.03
2018-12-18T06:48:35.667Z,21.57
2018-12-18T06:51:03.271Z,20.63
2018-12-18T06:53:30.821Z,14.83
2018-12-18T06:55:58.546Z,15.53
2018-12-18T06:58:26.237Z,20.67
2018-12-18T07:00:54.098Z,18.00
2018-12-18T07:03:21.639Z,22.33
2018-12-18T07:05:49.380Z,20.73
2018-12-18T07:08:16.915Z,19.73
2018-12-18T07:10:44.720Z,21.03
2018-12-18T07:13:12.247Z,20.00
2018-12-18T07:15:39.970Z,18.67
2018-12-18T07:18:07.839Z,19.90
2018-12-18T07:20:35.809Z,19.87
2018-12-18T07:23:03.359Z,19.57
2018-12-18T07:25:30.969Z,18.23
2018-12-18T07:27:58.492Z,16.40
2018-12-18T07:30:27.131Z,19.50
2018-12-18T07:32:54.948Z,23.27
2018-12-18T07:35:23.373Z,19.43
2018-12-18T07:37:51.493Z,17.27
2018-12-18T07:40:19.147Z,20.83
2018-12-18T07:42:47.007Z,23.03
2018-12-18T07:45:14.610Z,20.53
2018-12-18T07:47:42.151Z,26.77
2018-12-18T07:50:10.005Z,21.83
2018-12-18T07:52:37.543Z,20.93
2018-12-18T07:55:05.568Z,25.90
2018-12-18T07:57:33.112Z,20.13
2018-12-18T08:00:00.867Z,23.20
2018-12-18T08:02:28.397Z,20.40
2018-12-18T08:04:56.359Z,14.23
2018-12-18T08:07:23.903Z,18.73
2018-12-18T08:09:51.911Z,20.50
2018-12-18T08:12:21.419Z,16.63
2018-12-18T08:14:49.097Z,22.80
2018-12-18T08:17:17.138Z,24.23
2018-12-18T08:19:44.829Z,24.40
2018-12-18T08:22:12.371Z,19.50
2018-12-18T08:24:40.352Z,21.83
2018-12-18T08:27:08.265Z,22.67
2018-12-18T08:29:35.870Z,18.50
2018-12-18T08:32:03.395Z,20.40
2018-12-18T08:34:31.413Z,20.33
2018-12-18T08:36:59.121Z,22.87
2018-12-18T08:39:26.931Z,23.60
2018-12-18T08:41:54.471Z,20.77
2018-12-18T08:44:22.591Z,23.17
2018-12-18T08:46:50.148Z,22.83
2018-12-18T08:49:17.767Z,24.07
2018-12-18T08:51:45.431Z,18.57
2018-12-18T08:54:13.041Z,19.00
2018-12-18T08:56:40.854Z,22.33
2018-12-18T08:59:08.494Z,19.80
2018-12-18T09:01:36.048Z,23.13
2018-12-18T09:04:04.253Z,28.70
2018-12-18T09:06:31.780Z,22.50
2018-12-18T09:08:59.320Z,20.07
2018-12-18T09:11:26.986Z,20.90
2018-12-18T09:13:54.525Z,24.73
2018-12-18T09:16:27.992Z,23.77
2018-12-18T09:18:55.802Z,22.57
2018-12-18T09:21:23.662Z,19.40
2018-12-18T09:23:51.201Z,23.63
2018-12-18T09:26:18.812Z,20.47
2018-12-18T09:28:46.778Z,21.03
2018-12-18T09:31:15.167Z,20.27
2018-12-18T09:33:42.826Z,23.23
2018-12-18T09:36:10.446Z,22.57
2018-12-18T09:38:57.682Z,21.93
2018-12-18T09:41:25.918Z,20.33
2018-12-18T09:43:55.447Z,22.30
2018-12-18T09:46:23.282Z,18.80
2018-12-18T09:48:50.819Z,15.40
2018-12-18T09:51:18.835Z,23.73
2018-12-18T09:53:46.374Z,21.93
2018-12-18T09:56:15.132Z,23.80
2018-12-18T09:58:42.793Z,16.57
2018-12-18T10:01:10.655Z,20.57
2018-12-18T10:03:38.964Z,22.80
2018-12-18T10:06:06.924Z,17.03
2018-12-18T10:08:34.668Z,20.10
2018-12-18T10:11:02.915Z,18.87
2018-12-18T10:13:30.446Z,16.87
2018-12-18T10:15:58.324Z,20.77
2018-12-18T10:18:25.930Z,19.83
2018-12-18T10:20:53.605Z,18.53
2018-12-18T10:23:22.100Z,19.70
2018-12-18T10:25:51.323Z,15.00
2018-12-18T10:28:19.430Z,20.60
2018-12-18T10:30:46.973Z,26.27
2018-12-18T10:33:14.970Z,15.90
2018-12-18T10:35:42.632Z,20.70
2018-12-18T10:38:10.216Z,24.67
2018-12-18T10:40:38.246Z,18.63
2018-12-18T10:43:05.778Z,14.13
2018-12-18T10:45:33.511Z,14.70
2018-12-18T10:48:01.046Z,16.37
2018-12-18T10:50:29.134Z,18.20
2018-12-18T10:52:56.922Z,16.80
2018-12-18T10:55:24.468Z,12.63
2018-12-18T10:57:52.442Z,18.80
2018-12-18T11:00:22.165Z,19.40
2018-12-18T11:02:49.817Z,16.90
2018-12-18T11:05:17.439Z,20.37
2018-12-18T11:07:45.533Z,16.57
2018-12-18T11:10:13.226Z,15.17
2018-12-18T11:12:40.891Z,15.37
2018-12-18T11:15:08.701Z,26.67
2018-12-18T11:17:36.570Z,20.27
2018-12-18T11:20:04.565Z,12.87
2018-12-18T11:22:32.307Z,17.27
2018-12-18T11:24:59.967Z,12.63
2018-12-18T11:27:28.281Z,13.13
2018-12-18T11:29:56.422Z,14.20
2018-12-18T11:32:24.409Z,20.47
2018-12-18T11:34:52.429Z,14.83
2018-12-18T11:37:20.378Z,19.43
2018-12-18T11:39:47.914Z,13.00
2018-12-18T11:42:15.849Z,15.60
2018-12-18T11:44:43.407Z,15.53
2018-12-18T11:47:11.366Z,13.00
2018-12-18T11:49:39.067Z,14.87
2018-12-18T11:52:06.609Z,15.53
2018-12-18T11:54:34.496Z,18.43
2018-12-18T11:57:02.067Z,13.20
2018-12-18T11:59:30.061Z,12.97
2018-12-18T12:01:57.871Z,16.83
2018-12-18T12:04:25.443Z,13.13
2018-12-18T12:06:53.068Z,12.40
2018-12-18T12:09:20.579Z,14.80
2018-12-18T12:11:48.513Z,12.00
2018-12-18T12:14:16.027Z,20.30
2018-12-18T12:16:43.831Z,18.17
2018-12-18T12:19:11.335Z,16.77
2018-12-18T12:21:38.923Z,20.50
2018-12-18T12:24:06.454Z,17.73
2018-12-18T12:26:34.682Z,23.23
2018-12-18T12:29:02.944Z,17.40
2018-12-18T12:31:30.842Z,15.73
2018-12-18T12:33:58.366Z,16.97
2018-12-18T12:36:29.688Z,14.60
2018-12-18T12:38:56.103Z,15.13
2018-12-18T12:41:23.920Z,15.63
2018-12-18T12:43:51.433Z,16.67
2018-12-18T12:46:19.266Z,16.17
2018-12-18T12:48:52.554Z,15.43
2018-12-18T12:51:20.344Z,17.80
2018-12-18T12:53:47.870Z,17.00
2018-12-18T12:56:15.719Z,16.77
2018-12-18T12:58:43.294Z,17.43
2018-12-18T13:01:10.807Z,19.87
2018-12-18T13:03:38.635Z,19.20
2018-12-18T13:06:06.865Z,15.00
2018-12-18T13:08:34.459Z,19.73
2018-12-18T13:11:01.969Z,18.27
2018-12-18T13:13:29.588Z,30.63
2018-12-18T13:15:57.104Z,21.70
2018-12-18T13:18:25.009Z,25.83
2018-12-18T13:20:52.527Z,18.30
2018-12-18T13:23:20.346Z,22.10
2018-12-18T13:25:47.869Z,22.70
2018-12-18T13:28:15.647Z,22.87
2018-12-18T13:30:43.277Z,19.23
2018-12-18T13:33:10.997Z,25.47
2018-12-18T13:35:38.529Z,20.60
2018-12-18T13:38:06.805Z,21.20
2018-12-18T13:40:34.329Z,17.73
2018-12-18T13:43:02.056Z,18.70
2018-12-18T13:45:29.554Z,17.03
2018-12-18T13:47:57.423Z,14.93
2018-12-18T13:50:24.937Z,19.93
2018-12-18T13:52:52.905Z,24.03
2018-12-18T13:55:20.413Z,17.10
2018-12-18T13:57:48.212Z,16.17
2018-12-18T14:00:15.798Z,19.07
2018-12-18T14:02:43.967Z,17.37
2018-12-18T14:05:11.498Z,23.03
2018-12-18T14:07:39.707Z,19.83
2018-12-18T14:10:07.290Z,16.00
2018-12-18T14:12:35.217Z,16.03
2018-12-18T14:15:02.711Z,14.70
2018-12-18T14:17:30.555Z,20.63
2018-12-18T14:19:59.421Z,23.33
2018-12-18T14:22:27.095Z,17.20
2018-12-18T14:24:54.680Z,14.80
2018-12-18T14:27:23.223Z,14.40
2018-12-18T14:29:50.777Z,22.77
2018-12-18T14:32:18.746Z,17.77
2018-12-18T14:34:46.262Z,25.50
2018-12-18T14:37:13.893Z,19.83
2018-12-18T14:39:41.393Z,21.80
2018-12-18T14:42:09.059Z,21.80
2018-12-18T14:44:36.582Z,21.57
2018-12-18T14:47:04.512Z,26.40
2018-12-18T14:49:32.151Z,21.03
2018-12-18T14:51:59.835Z,14.83
2018-12-18T14:54:27.450Z,17.67
2018-12-18T14:56:55.980Z,13.97
2018-12-18T14:59:23.681Z,20.40
2018-12-18T15:01:51.196Z,19.63
2018-12-18T15:04:19.195Z,20.47
2018-12-18T15:06:46.697Z,14.93
2018-12-18T15:09:14.503Z,14.50
2018-12-18T15:11:42.004Z,15.07
2018-12-18T15:14:09.790Z,15.17
2018-12-18T15:16:37.298Z,20.80
2018-12-18T15:19:04.971Z,22.83
2018-12-18T15:21:32.494Z,17.30
2018-12-18T15:24:00.273Z,23.00
2018-12-18T15:26:27.787Z,20.10
2018-12-18T15:28:56.053Z,16.47
2018-12-18T15:31:23.562Z,15.83
2018-12-18T15:33:51.143Z,19.93
2018-12-18T15:36:18.653Z,14.40
2018-12-18T15:38:46.229Z,19.30
2018-12-18T15:41:13.751Z,21.17
2018-12-18T15:43:41.560Z,16.93
2018-12-18T15:46:09.086Z,24.23
2018-12-18T15:48:37.128Z,16.20
2018-12-18T15:51:04.648Z,19.27
2018-12-18T15:53:32.266Z,28.77
2018-12-18T15:56:00.299Z,22.10
2018-12-18T15:58:27.901Z,25.13
2018-12-18T16:00:55.401Z,26.43
2018-12-18T16:03:23.020Z,28.03
2018-12-18T16:05:50.515Z,37.53
2018-12-18T16:08:18.484Z,35.07
2018-12-18T16:10:45.992Z,42.57
2018-12-18T16:13:13.821Z,41.37
2018-12-18T16:15:41.340Z,35.77
2018-12-18T16:18:09.463Z,57.40
2018-12-18T16:20:37.085Z,44.13
2018-12-18T16:23:05.332Z,36.57
2018-12-18T16:25:32.892Z,47.63
2018-12-18T16:28:01.369Z,54.07
2018-12-18T16:30:29.368Z,48.27
2018-12-18T16:32:57.296Z,55.10
2018-12-18T16:35:24.859Z,61.53
2018-12-18T16:37:52.639Z,50.13
2018-12-18T16:40:20.257Z,62.60
2018-12-18T16:42:48.158Z,49.27
2018-12-18T16:45:15.725Z,53.30
2018-12-18T16:47:43.688Z,55.17
2018-12-18T16:50:11.280Z,50.13
2018-12-18T16:52:39.238Z,64.87
2018-12-18T16:55:06.848Z,67.13
2018-12-18T16:57:34.818Z,69.80
2018-12-18T17:00:02.520Z,73.50
2018-12-18T17:02:30.846Z,71.50
2018-12-18T17:04:58.369Z,61.87
2018-12-18T17:07:29.583Z,72.03
2018-12-18T17:09:55.835Z,66.83
2018-12-18T17:12:23.375Z,72.87
2018-12-18T17:14:51.037Z,61.50
2018-12-18T17:17:18.614Z,71.03
2018-12-18T17:19:46.312Z,72.17
2018-12-18T17:22:13.899Z,85.87
2018-12-18T17:24:41.855Z,83.40
2018-12-18T17:27:09.443Z,76.77
2018-12-18T17:29:37.449Z,70.20
2018-12-18T17:32:05.003Z,60.73
2018-12-18T17:34:32.915Z,65.90
2018-12-18T17:37:00.420Z,58.40
2018-12-18T17:39:28.541Z,60.93
2018-12-18T17:41:56.072Z,60.70
2018-12-18T17:44:24.180Z,59.90
2018-12-18T17:46:51.685Z,63.33
2018-12-18T17:49:19.490Z,60.23
2018-12-18T17:51:47.020Z,59.03
2018-12-18T17:54:14.614Z,55.63
2018-12-18T17:56:42.135Z,57.70
2018-12-18T17:59:10.022Z,67.23
2018-12-18T18:01:37.522Z,64.50
2018-12-18T18:04:05.459Z,68.93
2018-12-18T18:06:32.991Z,58.87
2018-12-18T18:09:00.615Z,60.90
2018-12-18T18:11:28.226Z,64.10
2018-12-18T18:13:55.898Z,65.37
2018-12-18T18:16:23.423Z,57.53
2018-12-18T18:18:51.628Z,64.40
2018-12-18T18:21:19.158Z,61.10
2018-12-18T18:23:46.864Z,62.70
2018-12-18T18:26:15.554Z,68.87
2018-12-18T18:28:43.494Z,57.77
2018-12-18T18:31:10.998Z,64.93
2018-12-18T18:33:38.614Z,58.40
2018-12-18T18:36:06.128Z,63.10
2018-12-18T18:38:34.164Z,55.80
2018-12-18T18:41:01.677Z,55.80
2018-12-18T18:43:29.267Z,57.07
2018-12-18T18:45:56.799Z,57.23
2018-12-18T18:48:24.790Z,66.17
2018-12-18T18:50:53.765Z,61.80
2018-12-18T18:53:21.967Z,64.83
2018-12-18T18:55:49.624Z,50.97
2018-12-18T18:58:17.686Z,59.97
2018-12-18T19:00:45.290Z,61.00
2018-12-18T19:03:13.236Z,57.90
2018-12-18T19:05:40.753Z,66.47
2018-12-18T19:08:08.594Z,58.50
2018-12-18T19:10:36.104Z,55.53
2018-12-18T19:13:03.905Z,61.47
2018-12-18T19:15:31.415Z,50.90
2018-12-18T19:17:59.045Z,65.07
2018-12-18T19:20:26.557Z,55.13
2018-12-18T19:22:55.441Z,71.40
2018-12-18T19:25:22.962Z,60.13
2018-12-18T19:27:50.544Z,57.37
2018-12-18T19:30:18.810Z,59.60
2018-12-18T19:32:46.976Z,62.43
2018-12-18T19:35:14.870Z,70.97
2018-12-18T19:37:42.759Z,58.50
2018-12-18T19:40:10.267Z,67.80
2018-12-18T19:42:38.275Z,60.63
2018-12-18T19:45:06.194Z,61.10
2018-12-18T19:47:34.008Z,72.73
2018-12-18T19:50:02.228Z,55.57
2018-12-18T19:52:29.861Z,67.20
2018-12-18T19:54:57.380Z,61.00
2018-12-18T19:57:25.526Z,62.00
2018-12-18T19:59:53.050Z,55.80
2018-12-18T20:02:20.672Z,63.37
2018-12-18T20:04:48.525Z,64.37
2018-12-18T20:07:16.035Z,60.17
2018-12-18T20:09:44.268Z,66.60
2018-12-18T20:12:11.814Z,56.90
2018-12-18T20:14:39.778Z,57.33
2018-12-18T20:17:07.681Z,61.37
2018-12-18T20:19:35.749Z,69.73
2018-12-18T20:22:03.361Z,65.73
2018-12-18T20:24:31.081Z,55.17
2018-12-18T20:26:58.627Z,63.13
2018-12-18T20:29:26.746Z,59.00
2018-12-18T20:31:54.270Z,61.37
2018-12-18T20:34:22.194Z,60.37
2018-12-18T20:36:49.755Z,59.53
2018-12-18T20:39:17.606Z,58.60
2018-12-18T20:41:45.171Z,60.67
2018-12-18T20:44:12.896Z,56.80
2018-12-18T20:46:40.440Z,59.90
2018-12-18T20:49:08.718Z,57.03
2018-12-18T20:51:36.496Z,57.50
2018-12-18T20:54:04.331Z,58.63
2018-12-18T20:56:31.902Z,63.13
2018-12-18T20:58:59.943Z,63.93
2018-12-18T21:01:28.595Z,49.37
2018-12-18T21:03:56.459Z,53.43
2018-12-18T21:06:23.998Z,54.93
2018-12-18T21:08:51.801Z,56.23
2018-12-18T21:11:19.616Z,55.77
2018-12-18T21:13:47.155Z,58.80
2018-12-18T21:16:14.824Z,55.93
2018-12-18T21:18:42.364Z,65.90
2018-12-18T21:21:15.355Z,61.73
2018-12-18T21:23:40.112Z,51.73
2018-12-18T21:26:07.746Z,49.87
2018-12-18T21:28:36.000Z,53.50
2018-12-18T21:31:03.582Z,55.60
2018-12-18T21:33:31.523Z,53.03
2018-12-18T21:35:59.083Z,48.70
2018-12-18T21:38:30.203Z,56.00
2018-12-18T21:40:57.030Z,55.87
2018-12-18T21:43:24.657Z,55.07
2018-12-18T21:45:52.613Z,45.97
2018-12-18T21:48:20.459Z,49.33
2018-12-18T21:50:48.606Z,57.77
2018-12-18T21:53:16.324Z,58.40
2018-12-18T21:55:43.869Z,56.40
2018-12-18T21:58:11.560Z,59.43
2018-12-18T22:00:39.104Z,50.47
2018-12-18T22:03:07.088Z,57.23
2018-12-18T22:05:35.339Z,59.60
2018-12-18T22:08:02.975Z,46.80
2018-12-18T22:10:30.554Z,50.90
2018-12-18T22:12:58.686Z,55.67
2018-12-18T22:15:26.343Z,55.30
2018-12-18T22:17:53.908Z,51.77
2018-12-18T22:20:21.537Z,44.80
2018-12-18T22:22:49.341Z,51.60
2018-12-18T22:25:16.928Z,51.90
2018-12-18T22:27:45.434Z,55.97
2018-12-18T22:30:13.860Z,42.07
2018-12-18T22:32:41.405Z,46.60
2018-12-18T22:35:09.246Z,46.90
2018-12-18T22:37:36.856Z,46.87
2018-12-18T22:40:04.665Z,53.47
2018-12-18T22:42:32.395Z,46.53
2018-12-18T22:45:02.546Z,50.30
2018-12-18T22:47:30.091Z,47.43
2018-12-18T22:49:57.639Z,52.40
2018-12-18T22:52:25.544Z,48.33
2018-12-18T22:54:53.099Z,51.67
2018-12-18T22:57:21.195Z,48.67
2018-12-18T22:59:48.727Z,49.60
2018-12-18T23:02:16.654Z,54.10
2018-12-18T23:04:44.502Z,57.97
2018-12-18T23:07:12.187Z,56.13
2018-12-18T23:09:39.979Z,43.13
2018-12-18T23:12:09.398Z,43.53
2018-12-18T23:14:37.008Z,52.40
2018-12-18T23:17:04.546Z,46.40
2018-12-18T23:19:32.237Z,41.80
2018-12-18T23:21:59.776Z,49.20
2018-12-18T23:24:27.884Z,46.57
2018-12-18T23:26:55.562Z,47.00
2018-12-18T23:29:23.675Z,43.93
2018-12-18T23:31:51.233Z,45.40
2018-12-18T23:34:18.867Z,53.37
2018-12-18T23:36:46.403Z,46.13
2018-12-18T23:39:16.787Z,46.37
2018-12-18T23:41:44.370Z,57.60
2018-12-18T23:44:12.510Z,47.33
2018-12-18T23:46:40.029Z,49.67
2018-12-18T23:49:07.655Z,50.77
2018-12-18T23:51:35.190Z,39.60
2018-12-18T23:54:02.897Z,48.80
2018-12-18T23:56:30.437Z,41.50
2018-12-18T23:58:58.075Z,48.30
